Data for 04/12/2013

Time Sea-Level Adjusted Pressure Absolute Pressure Temperature Relative Humidity Dew Point   
(mb) (inHg) (mb) (inHg) (C) (F) (%) (C) (F)
00:05 1017 30.03 846 24.98 1.8 35.2 48 -8 17.5
00:10 1017 30.03 846 24.98 1.6 34.9 50 -7.7 18.1
00:15 1017 30.03 846 24.98 1.3 34.4 50 -7.9 17.8
00:20 1017 30.03 846 24.98 1.2 34.2 50 -8 17.7
00:25 1017 30.03 846 24.98 1.2 34.1 51 -7.9 17.8
00:30 1017 30.03 846 24.98 1.1 33.9 52 -7.8 17.9
00:35 1017 30.03 846 24.98 0.9 33.6 52 -7.8 17.9
00:40 1017 30.03 846 24.98 0.9 33.6 52 -7.9 17.8
00:45 1017 30.03 846 24.98 0.9 33.6 52 -7.9 17.8
00:50 1017 30.03 846 24.98 0.8 33.5 52 -7.9 17.9
00:55 1017 30.03 846 24.98 0.8 33.4 53 -7.8 18
01:00 1017 30.03 846 24.98 0.8 33.5 53 -7.8 17.9
01:05 1017 30.03 846 24.98 0.8 33.5 52 -7.8 17.9
01:10 1017 30.03 846 24.98 0.8 33.4 53 -7.7 18.2
01:15 1017 30.03 846 24.98 0.7 33.3 53 -7.8 18
01:20 1017 30.03 846 24.98 0.8 33.4 53 -7.7 18.2
01:25 1017 30.03 846 24.98 0.8 33.4 53 -7.7 18.2
01:30 1017 30.03 846 24.98 0.8 33.4 53 -7.8 18
01:35 1017 30.03 846 24.98 0.7 33.3 53 -7.9 17.8
01:40 1017 30.03 846 24.98 0.8 33.4 53 -7.8 17.9
01:45 1017 30.03 846 24.98 0.7 33.3 53 -7.8 17.9
01:50 1017 30.03 846 24.98 0.5 32.9 54 -7.9 17.9
01:55 1017 30.03 846 24.98 0.4 32.7 54 -8 17.7
02:00 1017 30.03 846 24.98 0.4 32.8 53 -8.1 17.4
02:05 1017 30.03 846 24.98 0.5 32.9 53 -8.1 17.4
02:10 1017 30.03 846 24.98 0.5 32.9 53 -8 17.6
02:15 1017 30.03 846 24.98 0.5 32.8 54 -7.9 17.8
02:20 1017 30.03 846 24.98 0.5 32.9 53 -7.9 17.8
02:25 1017 30.03 846 24.98 0.5 32.9 54 -7.8 18
02:30 1017 30.03 846 24.98 0.5 32.9 54 -7.8 18
02:35 1017 30.03 846 24.98 0.5 32.8 55 -7.5 18.5
02:40 1017 30.03 846 24.98 0.1 32.2 56 -7.6 18.4
02:45 1017 30.03 846 24.98 -0.1 31.7 57 -7.6 18.3
02:50 1017 30.03 846 24.98 -0.2 31.7 57 -7.6 18.3
02:55 1017 30.03 846 24.98 -0.1 31.8 57 -7.6 18.4
03:00 1017 30.03 846 24.98 -0.2 31.7 58 -7.5 18.4
03:05 1017 30.03 846 24.98 -0.1 31.7 58 -7.5 18.4
03:10 1017 30.03 846 24.98 -0.1 31.9 58 -7.5 18.6
03:15 1017 30.03 846 24.98 0.1 32.1 57 -7.5 18.5
03:20 1017 30.03 846 24.98 0.3 32.5 57 -7.4 18.7
03:25 1017 30.03 846 24.98 0.4 32.7 57 -7.2 19.1
03:30 1017 30.03 846 24.98 0.3 32.6 58 -7.1 19.2
03:35 1017 30.03 847 25.01 0.4 32.6 57 -7.1 19.2
03:40 1017 30.03 847 25.01 0.5 32.8 57 -7.1 19.2
03:45 1017 30.03 847 25.01 0.5 32.8 58 -7 19.5
03:50 1017 30.03 847 25.01 0.5 32.8 58 -6.8 19.8
03:55 1017 30.03 847 25.01 0.4 32.7 58 -6.8 19.7
04:00 1017 30.03 847 25.01 0.3 32.6 59 -6.8 19.8
04:05 1017 30.03 847 25.01 0.3 32.5 59 -6.7 19.9
04:10 1017 30.03 847 25.01 0.2 32.4 60 -6.6 20
04:15 1017 30.03 847 25.01 0.2 32.4 60 -6.7 19.9
04:20 1017 30.03 847 25.01 0.3 32.5 60 -6.6 20.1
04:25 1017 30.03 847 25.01 0.2 32.3 60 -6.6 20.1
04:30 1017 30.03 847 25.01 0.1 32.2 61 -6.6 20.1
04:35 1017 30.03 847 25.01 0.2 32.3 59 -6.8 19.7
04:40 1017 30.03 847 25.01 0.2 32.4 60 -6.7 19.9
04:45 1017 30.03 847 25.01 0.2 32.3 59 -6.8 19.8
04:50 1017 30.03 847 25.01 0.1 32.2 60 -6.8 19.7
04:55 1017 30.03 846 24.98 0.1 32.3 58 -7.2 19
05:00 1017 30.03 846 24.98 0.1 32.2 58 -7.2 19.1
05:05 1017 30.03 846 24.98 0 32.1 58 -7.3 18.9
05:10 1017 30.03 846 24.98 -0.1 31.8 58 -7.3 18.8
05:15 1017 30.03 847 25.01 -0.3 31.5 58 -7.5 18.6
05:20 1017 30.03 847 25.01 -0.2 31.6 58 -7.5 18.5
05:25 1017 30.03 847 25.01 -0.2 31.7 58 -7.5 18.5
05:30 1017 30.03 847 25.01 -0.1 31.8 58 -7.5 18.6
05:35 1017 30.03 847 25.01 -0.1 31.8 58 -7.5 18.6
05:40 1017 30.03 847 25.01 -0.2 31.7 58 -7.5 18.5
05:45 1017 30.03 847 25.01 -0.2 31.6 58 -7.5 18.5
05:50 1017 30.03 847 25.01 -0.2 31.6 58 -7.5 18.5
05:55 1018 30.06 847 25.01 -0.1 31.8 58 -7.4 18.7
06:00 1017 30.03 847 25.01 -0.1 31.7 59 -7.3 18.9
06:05 1018 30.06 847 25.01 -0.1 31.7 58 -7.4 18.7
06:10 1018 30.06 847 25.01 -0.2 31.7 58 -7.4 18.7
06:15 1018 30.06 847 25.01 -0.3 31.4 58 -7.6 18.3
06:20 1018 30.06 847 25.01 -0.4 31.2 59 -7.6 18.4
06:25 1018 30.06 847 25.01 -0.4 31.3 57 -7.8 18
06:30 1018 30.06 847 25.01 -0.2 31.6 57 -7.7 18.2
06:35 1018 30.06 847 25.01 -0.2 31.7 57 -7.6 18.2
06:40 1018 30.06 847 25.01 -0.2 31.7 58 -7.5 18.5
06:45 1018 30.06 847 25.01 -0.2 31.6 58 -7.4 18.7
06:50 1018 30.06 847 25.01 -0.1 31.7 58 -7.3 18.8
06:55 1018 30.06 847 25.01 -0.2 31.7 59 -7.3 18.9
07:00 1018 30.06 848 25.04 -0 31.9 57 -7.6 18.3
07:05 1018 30.06 848 25.04 0.3 32.5 56 -7.6 18.4
07:10 1018 30.06 848 25.04 0.5 32.8 56 -7.4 18.7
07:15 1018 30.06 848 25.04 0.6 33.2 54 -7.7 18.2
07:20 1018 30.06 848 25.04 0.8 33.4 54 -7.6 18.4
07:25 1018 30.06 848 25.04 1 33.8 53 -7.4 18.6
07:30 1018 30.06 848 25.04 1 33.7 54 -7.4 18.7
07:35 1018 30.06 848 25.04 0.8 33.5 55 -7.3 18.9
07:40 1018 30.06 848 25.04 0.9 33.7 54 -7.3 18.9
07:45 1018 30.06 848 25.04 1.3 34.3 53 -7.3 18.8
07:50 1018 30.06 848 25.04 1.7 35.1 52 -7.2 19
07:55 1018 30.06 848 25.04 2 35.6 51 -7.2 19.1
08:00 1018 30.06 848 25.04 2.1 35.9 49 -7.6 18.3
08:05 1018 30.06 847 25.01 2.5 36.4 46 -8 17.6
08:10 1018 30.06 848 25.04 3 37.4 46 -7.6 18.4
08:15 1018 30.06 848 25.04 3 37.4 45 -7.8 17.9
08:20 1018 30.06 848 25.04 3.4 38.2 42 -8.2 17.2
08:25 1018 30.06 848 25.04 3.8 38.9 42 -7.9 17.8
08:30 1018 30.06 848 25.04 3.9 39 44 -7.4 18.6
08:35 1018 30.06 848 25.04 3.6 38.4 42 -8.3 17.1
08:40 1018 30.06 847 25.01 3.9 39 39 -8.9 15.9
08:45 1018 30.06 847 25.01 4.6 40.2 38 -8.6 16.4
08:50 1018 30.06 847 25.01 4.6 40.3 37 -9 15.8
08:55 1018 30.06 847 25.01 4.3 39.7 39 -8.5 16.7
09:00 1018 30.06 847 25.01 4.1 39.3 39 -8.8 16.2
09:05 1018 30.06 847 25.01 4 39.2 39 -8.8 16.2
09:10 1018 30.06 847 25.01 4.4 39.9 37 -8.9 16
09:15 1018 30.06 847 25.01 4.8 40.7 37 -8.6 16.5
09:20 1018 30.06 847 25.01 5.3 41.5 36 -8.5 16.6
09:25 1018 30.06 847 25.01 4.9 40.7 38 -8.2 17.3
09:30 1018 30.06 847 25.01 4.4 40 37 -8.9 16
09:35 1018 30.06 847 25.01 4.4 39.9 38 -8.8 16.2
09:40 1018 30.06 847 25.01 5.2 41.4 35 -8.8 16.1
09:45 1018 30.06 847 25.01 5.5 41.8 34 -9.4 15.1
09:50 1018 30.06 847 25.01 5.6 42.1 34 -9 15.8
09:55 1018 30.06 847 25.01 5.9 42.6 33 -9.2 15.4
10:00 1018 30.06 847 25.01 6.3 43.4 32 -9 15.8
10:05 1018 30.06 847 25.01 6.4 43.5 33 -8.7 16.3
10:10 1018 30.06 847 25.01 5.5 41.9 36 -8.5 16.7
10:15 1018 30.06 847 25.01 5.6 42.1 33 -9.4 15
10:20 1018 30.06 847 25.01 5.8 42.5 33 -9.2 15.5
10:25 1018 30.06 847 25.01 5.6 42.1 32 -9.8 14.3
10:30 1018 30.06 847 25.01 5.5 41.8 32 -9.9 14.2
10:35 1018 30.06 847 25.01 6.2 43.2 30 -10.2 13.7
10:40 1018 30.06 847 25.01 6.5 43.7 30 -9.8 14.4
10:45 1018 30.06 847 25.01 6.5 43.8 30 -10 14.1
10:50 1018 30.06 847 25.01 5.9 42.6 31 -10 14
10:55 1018 30.06 847 25.01 5.4 41.7 32 -10 14
11:00 1018 30.06 847 25.01 6.5 43.8 31 -9.6 14.7
11:05 1017 30.03 847 25.01 7.5 45.4 28 -9.9 14.2
11:10 1017 30.03 847 25.01 7.5 45.5 29 -9.5 15
11:15 1017 30.03 847 25.01 7.4 45.3 28 -9.8 14.4
11:20 1017 30.03 846 24.98 7.4 45.3 28 -9.9 14.3
11:25 1017 30.03 846 24.98 6.2 43.1 32 -9.4 15.1
11:30 1017 30.03 846 24.98 6.5 43.8 28 -10.9 12.4
11:35 1017 30.03 846 24.98 7.3 45.2 26 -11 12.2
11:40 1017 30.03 846 24.98 6.6 43.9 28 -10.8 12.5
11:45 1017 30.03 846 24.98 6.4 43.6 28 -10.8 12.6
11:50 1017 30.03 846 24.98 6.3 43.3 28 -11 12.2
11:55 1017 30.03 846 24.98 6.4 43.6 27 -11.3 11.6
12:00 1017 30.03 846 24.98 6.8 44.2 27 -11 12.1
12:05 1017 30.03 846 24.98 6.7 44.1 28 -10.5 13
12:10 1017 30.03 846 24.98 6.6 43.8 27 -11.3 11.7
12:15 1016 30 846 24.98 7.5 45.5 26 -10.8 12.6
12:20 1016 30 845 24.95 8.4 47 25 -10.8 12.6
12:25 1016 30 845 24.95 8.1 46.5 27 -10.1 13.9
12:30 1016 30 845 24.95 8.4 47.1 26 -10 13.9
12:35 1016 30 845 24.95 7.4 45.2 29 -9.6 14.7
12:40 1016 30 845 24.95 7.2 45 25 -11.6 11.1
12:45 1016 30 845 24.95 8.7 47.6 23 -11.3 11.7
12:50 1016 30 845 24.95 8.6 47.6 23 -11.5 11.3
12:55 1016 30 845 24.95 8.6 47.5 23 -11.4 11.5
13:00 1016 30 845 24.95 7.8 46.1 23 -12.3 9.8
13:05 1015 29.97 845 24.95 8.7 47.7 22 -11.7 10.9
13:10 1015 29.97 845 24.95 8.8 47.9 24 -10.8 12.5
13:15 1015 29.97 844 24.92 9 48.1 22 -11.4 11.5
13:20 1015 29.97 844 24.92 8.6 47.5 24 -11 12.2
13:25 1015 29.97 844 24.92 8 46.4 24 -11.6 11.2
13:30 1015 29.97 844 24.92 8.5 47.2 24 -10.9 12.4
13:35 1015 29.97 844 24.92 8.8 47.9 23 -11.2 11.9
13:40 1015 29.97 844 24.92 9.5 49.1 22 -11.2 11.8
13:45 1015 29.97 844 24.92 9.7 49.5 22 -11.1 12
13:50 1015 29.97 844 24.92 9 48.3 22 -11.6 11.1
13:55 1014 29.94 844 24.92 8.7 47.7 24 -10.9 12.4
14:00 1014 29.94 844 24.92 8.4 47.1 23 -11.5 11.2
14:05 1014 29.94 843 24.89 9.1 48.5 22 -11.6 11.1
14:10 1014 29.94 843 24.89 9.7 49.5 22 -11.1 12.1
14:15 1014 29.94 843 24.89 9.9 49.8 22 -10.8 12.6
14:20 1014 29.94 843 24.89 9.9 49.8 21 -11.3 11.6
14:25 1014 29.94 843 24.89 9.6 49.2 23 -10.8 12.6
14:30 1014 29.94 843 24.89 9.2 48.6 21 -11.8 10.8
14:35 1014 29.94 843 24.89 10 50 20 -11.7 11
14:40 1014 29.94 843 24.89 10 49.9 21 -11.2 11.9
14:45 1013 29.91 843 24.89 10.1 50.2 21 -11 12.2
14:50 1013 29.91 842 24.86 10.2 50.3 22 -10.6 12.9
14:55 1013 29.91 842 24.86 10.5 50.8 21 -11 12.3
15:00 1013 29.91 842 24.86 10.3 50.5 22 -10.5 13.1
15:05 1013 29.91 842 24.86 9.1 48.4 23 -11.1 12.1
15:10 1013 29.91 842 24.86 9.5 49.1 22 -11.1 12
15:15 1013 29.91 842 24.86 10 50 22 -11 12.2
15:20 1013 29.91 842 24.86 10 50 21 -11.1 12.1
15:25 1013 29.91 842 24.86 9.3 48.7 23 -11 12.2
15:30 1013 29.91 842 24.86 9.3 48.7 24 -10.4 13.3
15:35 1013 29.91 842 24.86 9.2 48.6 22 -11.3 11.6
15:40 1013 29.91 842 24.86 9 48.2 22 -11.3 11.6
15:45 1012 29.88 842 24.86 9.1 48.4 23 -11.2 11.8
15:50 1012 29.88 842 24.86 9.4 49 22 -11.2 11.8
15:55 1012 29.88 841 24.83 8.6 47.5 23 -11.3 11.7
16:00 1012 29.88 841 24.83 8.9 48 23 -11.3 11.7
16:05 1012 29.88 841 24.83 8.9 48 23 -11.2 11.9
16:10 1012 29.88 841 24.83 9.1 48.4 22 -11.7 11
16:15 1012 29.88 841 24.83 9.4 49 22 -11.2 11.8
16:20 1012 29.88 841 24.83 8.6 47.5 23 -11.6 11.1
16:25 1012 29.88 841 24.83 8.6 47.5 23 -11.4 11.4
16:30 1012 29.88 841 24.83 9.1 48.4 22 -11.5 11.3
16:35 1012 29.88 841 24.83 9.1 48.3 21 -12 10.3
16:40 1012 29.88 841 24.83 9.8 49.7 20 -12.1 10.2
16:45 1011 29.85 841 24.83 10.1 50.1 20 -11.6 11
16:50 1011 29.85 841 24.83 10 50 21 -11.7 11
16:55 1011 29.85 840 24.81 9.8 49.7 21 -11.3 11.7
17:00 1011 29.85 840 24.81 9.7 49.4 21 -11.4 11.4
17:05 1011 29.85 840 24.81 9.8 49.6 22 -11.2 11.8
17:10 1011 29.85 840 24.81 9.8 49.6 22 -11 12.3
17:15 1011 29.85 840 24.81 9.8 49.6 23 -10.6 12.8
17:20 1011 29.85 840 24.81 9.9 49.9 22 -11 12.3
17:25 1011 29.85 840 24.81 9.6 49.3 22 -11 12.2
17:30 1011 29.85 840 24.81 9.7 49.5 22 -11 12.2
17:35 1010 29.83 840 24.81 9.6 49.3 23 -10.8 12.6
17:40 1010 29.83 840 24.81 9.5 49 23 -10.7 12.7
17:45 1010 29.83 839 24.78 9.6 49.2 23 -10.8 12.5
17:50 1010 29.83 839 24.78 9.6 49.3 24 -10.2 13.6
17:55 1010 29.83 839 24.78 9.4 49 24 -10 14.1
18:00 1010 29.83 839 24.78 9.2 48.6 25 -9.9 14.3
18:05 1010 29.83 839 24.78 9.1 48.4 24 -10.2 13.7
18:10 1010 29.83 839 24.78 9.1 48.3 25 -10 14
18:15 1010 29.83 839 24.78 8.9 48 25 -10 13.9
18:20 1010 29.83 839 24.78 8.8 47.8 26 -9.9 14.2
18:25 1010 29.83 839 24.78 8.6 47.5 26 -9.9 14.2
18:30 1010 29.83 839 24.78 8.6 47.4 26 -9.9 14.2
18:35 1009 29.8 839 24.78 8.4 47.2 27 -9.7 14.6
18:40 1009 29.8 839 24.78 8.3 47 27 -9.6 14.7
18:45 1009 29.8 838 24.75 8.2 46.8 27 -9.6 14.7
18:50 1009 29.8 838 24.75 8.1 46.7 28 -9.5 15
18:55 1009 29.8 838 24.75 8 46.4 28 -9.5 14.9
19:00 1009 29.8 838 24.75 7.9 46.2 28 -9.4 15
19:05 1009 29.8 838 24.75 7.8 46.1 28 -9.5 14.8
19:10 1009 29.8 838 24.75 7.8 46 28 -9.7 14.5
19:15 1009 29.8 838 24.75 7.7 45.9 28 -9.8 14.3
19:20 1009 29.8 838 24.75 7.7 45.8 28 -9.8 14.3
19:25 1009 29.8 838 24.75 7.6 45.6 28 -9.9 14.1
19:30 1009 29.8 838 24.75 7.5 45.4 27 -10.2 13.6
19:35 1009 29.8 838 24.75 7.4 45.2 27 -10.3 13.5
19:40 1009 29.8 838 24.75 7.3 45.1 27 -10.7 12.8
19:45 1009 29.8 838 24.75 7.2 45 27 -10.5 13.1
19:50 1009 29.8 838 24.75 7.2 45 27 -10.7 12.7
19:55 1009 29.8 838 24.75 7.2 44.9 27 -10.6 12.9
20:00 1009 29.8 838 24.75 7.1 44.8 27 -10.7 12.8
20:05 1009 29.8 838 24.75 7.1 44.7 27 -10.7 12.8
20:10 1009 29.8 838 24.75 6.9 44.5 28 -10.4 13.3
20:15 1008 29.77 838 24.75 6.8 44.3 29 -10.2 13.7
20:20 1008 29.77 838 24.75 6.7 44.1 30 -9.8 14.4
20:25 1008 29.77 838 24.75 6.6 43.8 30 -9.7 14.5
20:30 1008 29.77 837 24.72 6.5 43.7 31 -9.5 14.9
20:35 1008 29.77 837 24.72 6.4 43.5 31 -9.5 14.8
20:40 1008 29.77 837 24.72 6.4 43.5 31 -9.4 15
20:45 1008 29.77 837 24.72 6.3 43.4 31 -9.7 14.5
20:50 1008 29.77 837 24.72 6.4 43.4 30 -9.8 14.4
20:55 1008 29.77 837 24.72 6.4 43.4 31 -9.6 14.8
21:00 1008 29.77 837 24.72 6.3 43.3 31 -9.7 14.5
21:05 1008 29.77 837 24.72 6.3 43.3 31 -9.7 14.6
21:10 1008 29.77 837 24.72 6.2 43.2 31 -9.9 14.3
21:15 1008 29.77 837 24.72 6.2 43.2 31 -9.8 14.3
21:20 1008 29.77 837 24.72 6.4 43.5 31 -9.7 14.6
21:25 1007 29.74 837 24.72 6.4 43.6 31 -9.6 14.8
21:30 1007 29.74 837 24.72 6 42.8 32 -9.6 14.7
21:35 1007 29.74 836 24.69 5.9 42.6 32 -9.7 14.6
21:40 1007 29.74 836 24.69 5.9 42.7 32 -9.6 14.8
21:45 1007 29.74 836 24.69 6.1 43 32 -9.5 14.9
21:50 1007 29.74 836 24.69 6 42.7 32 -9.3 15.2
21:55 1007 29.74 836 24.69 5.8 42.4 33 -9.3 15.2
22:00 1007 29.74 836 24.69 5.8 42.5 33 -9.4 15.1
22:05 1007 29.74 836 24.69 6.1 42.9 32 -9.3 15.3
22:10 1006 29.71 836 24.69 6 42.9 32 -9.4 15.1
22:15 1006 29.71 836 24.69 6 42.7 33 -9.1 15.6
22:20 1006 29.71 835 24.66 6.2 43.1 32 -9.5 15
22:25 1006 29.71 835 24.66 6.2 43.1 33 -9.1 15.7
22:30 1006 29.71 835 24.66 6.1 43.1 32 -9.2 15.4
22:35 1006 29.71 835 24.66 6.5 43.6 30 -9.9 14.1
22:40 1006 29.71 835 24.66 6.8 44.3 31 -9.1 15.7
22:45 1006 29.71 835 24.66 6.5 43.6 32 -9.1 15.6
22:50 1006 29.71 835 24.66 6.4 43.5 32 -9.1 15.6
22:55 1006 29.71 835 24.66 6.4 43.6 32 -9.2 15.5
23:00 1006 29.71 835 24.66 6.5 43.7 31 -9.5 14.9
23:05 1005 29.68 835 24.66 6.6 43.8 32 -8.9 15.9
23:10 1005 29.68 835 24.66 6.7 44 29 -10.1 13.9
23:15 1005 29.68 835 24.66 7.2 45 28 -10.1 13.9
23:20 1005 29.68 835 24.66 7.6 45.6 28 -9.9 14.1
23:25 1005 29.68 835 24.66 7.6 45.6 29 -9.3 15.2
23:30 1005 29.68 835 24.66 7.3 45.2 29 -9.4 15.1
23:35 1005 29.68 835 24.66 7.1 44.8 30 -9.3 15.3
23:40 1005 29.68 835 24.66 7 44.6 28 -10.3 13.4
23:45 1005 29.68 835 24.66 7.3 45.1 29 -9.5 14.8
23:50 1005 29.68 835 24.66 7.8 46 27 -10 14
23:55 1005 29.68 835 24.66 8 46.3 29 -9.2 15.5
24:00 1005 29.68 835 24.66 7.7 45.8 29 -9.5 15